createdAt,value
2023-04-19T00:00:02.787Z,99.99
2023-04-19T00:01:02.784Z,99.99
2023-04-19T00:02:02.908Z,99.99
2023-04-19T00:03:02.934Z,99.99
2023-04-19T00:04:02.966Z,99.99
2023-04-19T00:05:03.009Z,99.99
2023-04-19T00:06:02.768Z,99.99
2023-04-19T00:07:02.774Z,99.99
2023-04-19T00:08:02.715Z,99.99
2023-04-19T00:09:02.690Z,99.99
2023-04-19T00:10:02.672Z,99.99
2023-04-19T00:11:02.657Z,99.99
2023-04-19T00:12:02.679Z,99.99
2023-04-19T00:13:02.637Z,99.99
2023-04-19T00:14:02.651Z,99.99
2023-04-19T00:15:02.624Z,99.99
2023-04-19T00:16:02.611Z,99.99
2023-04-19T00:17:02.675Z,99.99
2023-04-19T00:18:02.603Z,99.99
2023-04-19T00:19:02.578Z,99.99
2023-04-19T00:20:02.549Z,99.99
2023-04-19T00:21:02.546Z,99.99
2023-04-19T00:22:02.567Z,99.99
2023-04-19T00:23:02.520Z,99.99
2023-04-19T00:24:02.518Z,99.99
2023-04-19T00:25:02.502Z,99.99
2023-04-19T00:26:02.489Z,99.99
2023-04-19T00:27:02.538Z,99.99
2023-04-19T00:28:02.472Z,99.99
2023-04-19T00:29:02.454Z,99.99
2023-04-19T00:30:02.459Z,99.99
2023-04-19T00:31:02.481Z,99.99
2023-04-19T00:32:02.459Z,99.99
2023-04-19T00:33:02.505Z,99.99
2023-04-19T00:34:02.408Z,99.99
2023-04-19T00:35:02.375Z,99.99
2023-04-19T00:36:02.391Z,99.99
2023-04-19T00:37:02.415Z,99.99
2023-04-19T00:38:02.353Z,99.99
2023-04-19T00:39:02.355Z,99.99
2023-04-19T00:40:02.347Z,99.99
2023-04-19T00:41:02.345Z,99.99
2023-04-19T00:42:02.323Z,99.99
2023-04-19T00:43:02.341Z,99.99
2023-04-19T00:44:02.292Z,99.99
2023-04-19T00:45:02.267Z,99.99
2023-04-19T00:46:02.329Z,99.99
2023-04-19T00:47:02.265Z,99.99
2023-04-19T00:48:02.404Z,99.99
2023-04-19T00:49:02.239Z,99.99
2023-04-19T00:50:02.233Z,99.99
2023-04-19T00:51:02.224Z,99.99
2023-04-19T00:52:02.294Z,99.99
2023-04-19T00:53:02.245Z,99.99
2023-04-19T00:54:02.232Z,99.99
2023-04-19T00:55:02.149Z,99.99
2023-04-19T00:56:02.213Z,99.99
2023-04-19T00:57:02.131Z,99.99
2023-04-19T00:58:02.164Z,99.99
2023-04-19T00:59:02.124Z,99.99
2023-04-19T01:00:02.130Z,99.99
2023-04-19T01:01:02.191Z,99.99
2023-04-19T01:02:02.279Z,99.99
2023-04-19T01:03:02.220Z,99.99
2023-04-19T01:04:02.275Z,99.99
2023-04-19T01:05:02.066Z,99.99
2023-04-19T01:06:02.055Z,99.99
2023-04-19T01:07:02.049Z,99.99
2023-04-19T01:08:02.089Z,99.99
2023-04-19T01:09:02.000Z,99.99
2023-04-19T01:10:02.113Z,99.99
2023-04-19T01:11:01.989Z,99.99
2023-04-19T01:12:01.980Z,99.99
2023-04-19T01:13:02.002Z,99.99
2023-04-19T01:14:01.957Z,99.99
2023-04-19T01:15:02.016Z,99.99
2023-04-19T01:16:01.975Z,99.99
2023-04-19T01:17:01.922Z,99.99
2023-04-19T01:18:01.996Z,99.99
2023-04-19T01:19:01.878Z,99.99
2023-04-19T01:20:01.973Z,99.99
2023-04-19T01:21:01.874Z,99.99
2023-04-19T01:22:01.853Z,99.99
2023-04-19T01:23:01.886Z,99.99
2023-04-19T01:24:01.831Z,99.99
2023-04-19T01:25:01.846Z,99.99
2023-04-19T01:26:01.813Z,99.99
2023-04-19T01:27:01.809Z,99.99
2023-04-19T01:28:01.826Z,99.99
2023-04-19T01:29:01.770Z,99.99
2023-04-19T01:30:01.842Z,99.99
2023-04-19T01:31:01.802Z,99.99
2023-04-19T01:32:01.748Z,99.99
2023-04-19T01:33:01.845Z,99.99
2023-04-19T01:34:01.805Z,99.99
2023-04-19T01:35:01.707Z,99.99
2023-04-19T01:36:01.714Z,99.99
2023-04-19T01:37:01.680Z,99.99
2023-04-19T01:38:01.731Z,99.99
2023-04-19T01:39:01.693Z,99.99
2023-04-19T01:40:01.661Z,99.99
2023-04-19T01:41:01.655Z,99.99
2023-04-19T01:42:01.654Z,99.99
2023-04-19T01:43:01.666Z,99.99
2023-04-19T01:44:01.642Z,99.99
2023-04-19T01:45:01.605Z,99.99
2023-04-19T01:46:01.598Z,99.99
2023-04-19T01:47:01.610Z,99.99
2023-04-19T01:48:01.648Z,99.99
2023-04-19T01:49:01.592Z,99.99
2023-04-19T01:50:01.545Z,99.99
2023-04-19T01:51:01.553Z,99.99
2023-04-19T01:52:01.555Z,99.99
2023-04-19T01:53:01.601Z,99.99
2023-04-19T01:54:01.503Z,99.99
2023-04-19T01:55:01.508Z,99.29
2023-04-19T01:56:01.483Z,99.60
2023-04-19T01:57:01.477Z,99.60
2023-04-19T01:58:01.515Z,99.99
2023-04-19T01:59:01.459Z,99.90
2023-04-19T02:00:01.484Z,99.08
2023-04-19T02:01:01.468Z,98.97
2023-04-19T02:02:01.495Z,99.08
2023-04-19T02:03:01.588Z,99.08
2023-04-19T02:04:01.475Z,98.46
2023-04-19T02:05:01.369Z,98.05
2023-04-19T02:06:01.358Z,99.08
2023-04-19T02:07:01.356Z,98.50
2023-04-19T02:08:01.451Z,98.61
2023-04-19T02:09:01.340Z,98.71
2023-04-19T02:10:01.359Z,98.92
2023-04-19T02:11:01.292Z,98.71
2023-04-19T02:12:01.297Z,97.99
2023-04-19T02:13:01.364Z,97.89
2023-04-19T02:14:01.275Z,95.93
2023-04-19T02:15:01.275Z,96.24
2023-04-19T02:16:01.259Z,95.93
2023-04-19T02:17:01.234Z,94.18
2023-04-19T02:18:01.302Z,93.87
2023-04-19T02:19:01.223Z,93.77
2023-04-19T02:20:01.222Z,93.56
2023-04-19T02:21:01.190Z,92.94
2023-04-19T02:22:01.180Z,92.63
2023-04-19T02:23:01.203Z,92.63
2023-04-19T02:24:01.171Z,91.30
2023-04-19T02:25:01.173Z,91.40
2023-04-19T02:26:01.132Z,91.50
2023-04-19T02:27:01.125Z,90.67
2023-04-19T02:28:01.153Z,90.78
2023-04-19T02:29:01.168Z,90.26
2023-04-19T02:30:01.132Z,90.26
2023-04-19T02:31:01.082Z,90.20
2023-04-19T02:32:01.093Z,90.51
2023-04-19T02:33:01.150Z,91.03
2023-04-19T02:34:01.041Z,90.61
2023-04-19T02:35:01.029Z,90.00
2023-04-19T02:36:01.020Z,90.00
2023-04-19T02:37:01.001Z,90.20
2023-04-19T02:38:01.022Z,90.31
2023-04-19T02:39:00.979Z,89.32
2023-04-19T02:40:00.994Z,88.70
2023-04-19T02:41:00.962Z,88.18
2023-04-19T02:42:00.962Z,87.56
2023-04-19T02:43:00.980Z,87.66
2023-04-19T02:44:00.940Z,87.56
2023-04-19T02:45:00.925Z,86.43
2023-04-19T02:46:00.940Z,87.46
2023-04-19T02:47:00.902Z,87.92
2023-04-19T02:48:00.920Z,86.88
2023-04-19T02:49:00.890Z,87.40
2023-04-19T02:50:00.864Z,86.36
2023-04-19T02:51:00.878Z,86.78
2023-04-19T02:52:00.827Z,86.92
2023-04-19T02:53:00.836Z,86.71
2023-04-19T02:54:00.857Z,86.41
2023-04-19T02:55:00.796Z,86.61
2023-04-19T02:56:00.792Z,87.02
2023-04-19T02:57:00.776Z,87.07
2023-04-19T02:58:00.763Z,86.30
2023-04-19T02:59:00.794Z,86.65
2023-04-19T03:00:00.751Z,86.03
2023-04-19T03:01:00.787Z,86.65
2023-04-19T03:02:00.734Z,86.44
2023-04-19T03:03:00.927Z,86.34
2023-04-19T03:04:00.824Z,86.34
2023-04-19T03:05:00.686Z,86.38
2023-04-19T03:06:00.693Z,85.66
2023-04-19T03:07:00.648Z,86.07
2023-04-19T03:08:00.671Z,86.69
2023-04-19T03:09:00.695Z,87.15
2023-04-19T03:10:00.660Z,86.73
2023-04-19T03:11:00.618Z,86.42
2023-04-19T03:12:00.601Z,86.21
2023-04-19T03:13:00.612Z,85.80
2023-04-19T03:14:00.627Z,85.80
2023-04-19T03:15:00.568Z,85.91
2023-04-19T03:16:00.587Z,86.21
2023-04-19T03:17:00.549Z,86.67
2023-04-19T03:18:00.598Z,86.77
2023-04-19T03:19:00.568Z,87.60
2023-04-19T03:20:00.519Z,88.36
2023-04-19T03:21:00.501Z,87.74
2023-04-19T03:22:00.501Z,87.54
2023-04-19T03:23:00.476Z,87.95
2023-04-19T03:24:00.501Z,87.74
2023-04-19T03:25:00.458Z,87.12
2023-04-19T03:26:00.444Z,87.12
2023-04-19T03:27:00.422Z,87.23
2023-04-19T03:28:00.431Z,87.02
2023-04-19T03:29:00.415Z,87.54
2023-04-19T03:30:00.401Z,87.99
2023-04-19T03:31:00.403Z,87.68
2023-04-19T03:32:00.357Z,86.96
2023-04-19T03:33:00.426Z,88.09
2023-04-19T03:34:00.403Z,87.82
2023-04-19T03:35:00.335Z,87.37
2023-04-19T03:36:00.311Z,87.72
2023-04-19T03:37:00.302Z,87.51
2023-04-19T03:38:00.276Z,87.10
2023-04-19T03:39:00.329Z,87.20
2023-04-19T03:40:00.267Z,86.99
2023-04-19T03:41:00.261Z,87.41
2023-04-19T03:42:00.236Z,86.99
2023-04-19T03:43:00.237Z,87.45
2023-04-19T03:44:00.247Z,87.04
2023-04-19T03:45:00.218Z,86.72
2023-04-19T03:46:00.230Z,86.31
2023-04-19T03:47:00.175Z,86.72
2023-04-19T03:48:02.615Z,86.72
2023-04-19T03:49:00.210Z,87.55
2023-04-19T03:50:00.177Z,87.24
2023-04-19T03:51:00.136Z,87.24
2023-04-19T03:52:00.159Z,87.04
2023-04-19T03:53:00.135Z,86.31
2023-04-19T03:54:00.137Z,86.72
2023-04-19T03:55:00.171Z,87.04
2023-04-19T03:56:00.118Z,87.35
2023-04-19T03:57:00.108Z,87.76
2023-04-19T03:58:00.067Z,88.53
2023-04-19T03:59:00.080Z,88.21
2023-04-19T04:00:00.027Z,89.04
2023-04-19T04:01:00.015Z,87.49
2023-04-19T04:02:00.145Z,88.01
2023-04-19T04:03:00.320Z,88.46
2023-04-19T04:04:02.232Z,88.42
2023-04-19T04:05:00.217Z,88.36
2023-04-19T04:05:59.958Z,87.43
2023-04-19T04:06:59.951Z,87.80
2023-04-19T04:07:59.932Z,88.11
2023-04-19T04:08:59.927Z,88.71
2023-04-19T04:09:59.942Z,88.46
2023-04-19T04:10:59.916Z,88.46
2023-04-19T04:11:59.898Z,88.78
2023-04-19T04:12:59.903Z,88.26
2023-04-19T04:13:59.877Z,87.95
2023-04-19T04:14:59.914Z,87.95
2023-04-19T04:15:59.900Z,87.53
2023-04-19T04:16:59.847Z,88.05
2023-04-19T04:17:59.860Z,88.30
2023-04-19T04:18:59.828Z,88.65
2023-04-19T04:19:59.818Z,88.75
2023-04-19T04:20:59.797Z,88.92
2023-04-19T04:21:59.788Z,88.92
2023-04-19T04:22:59.772Z,89.23
2023-04-19T04:23:59.765Z,88.71
2023-04-19T04:24:59.852Z,88.61
2023-04-19T04:25:59.754Z,88.40
2023-04-19T04:26:59.746Z,88.82
2023-04-19T04:27:59.719Z,89.13
2023-04-19T04:28:59.747Z,88.71
2023-04-19T04:29:59.738Z,88.40
2023-04-19T04:30:59.697Z,88.92
2023-04-19T04:31:59.758Z,89.13
2023-04-19T04:32:59.779Z,88.92
2023-04-19T04:33:59.679Z,89.13
2023-04-19T04:34:59.724Z,89.75
2023-04-19T04:35:59.660Z,89.89
2023-04-19T04:36:59.640Z,89.58
2023-04-19T04:37:59.626Z,89.96
2023-04-19T04:38:59.612Z,89.75
2023-04-19T04:39:59.642Z,89.96
2023-04-19T04:40:59.632Z,89.19
2023-04-19T04:41:59.607Z,88.32
2023-04-19T04:42:59.602Z,86.68
2023-04-19T04:44:12.193Z,84.99
2023-04-19T04:45:00.582Z,84.01
2023-04-19T04:45:59.584Z,82.39
2023-04-19T04:46:59.513Z,81.42
2023-04-19T04:47:59.540Z,81.49
2023-04-19T04:48:59.517Z,80.21
2023-04-19T04:49:59.531Z,79.32
2023-04-19T04:50:59.481Z,79.63
2023-04-19T04:51:59.464Z,80.25
2023-04-19T04:52:59.469Z,79.52
2023-04-19T04:53:59.471Z,79.86
2023-04-19T04:54:59.464Z,78.45
2023-04-19T04:55:59.428Z,77.42
2023-04-19T04:56:59.436Z,77.42
2023-04-19T04:57:59.388Z,77.31
2023-04-19T04:58:59.383Z,76.59
2023-04-19T04:59:59.401Z,77.45
2023-04-19T05:00:59.382Z,77.94
2023-04-19T05:01:59.423Z,79.35
2023-04-19T05:02:59.532Z,78.69
2023-04-19T05:03:59.415Z,77.90
2023-04-19T05:04:59.383Z,76.76
2023-04-19T05:05:59.302Z,76.66
2023-04-19T05:06:59.366Z,76.35
2023-04-19T05:07:59.344Z,78.42
2023-04-19T05:08:59.272Z,78.66
2023-04-19T05:09:59.298Z,78.11
2023-04-19T05:10:59.287Z,77.11
2023-04-19T05:11:59.273Z,76.07
2023-04-19T05:12:59.261Z,75.49
2023-04-19T05:13:59.233Z,76.01
2023-04-19T05:14:59.273Z,75.97
2023-04-19T05:15:59.265Z,76.04
2023-04-19T05:16:59.197Z,74.50
2023-04-19T05:17:59.217Z,74.40
2023-04-19T05:18:59.174Z,75.18
2023-04-19T05:19:59.190Z,74.15
2023-04-19T05:20:59.145Z,74.19
2023-04-19T05:21:59.136Z,74.67
2023-04-19T05:22:59.161Z,74.50
2023-04-19T05:23:59.125Z,72.68
2023-04-19T05:24:59.119Z,71.79
2023-04-19T05:25:59.057Z,72.61
2023-04-19T05:26:59.078Z,72.65
2023-04-19T05:27:59.062Z,74.63
2023-04-19T05:28:59.046Z,73.40
2023-04-19T05:29:59.079Z,73.50
2023-04-19T05:30:59.071Z,74.36
2023-04-19T05:31:59.058Z,74.33
2023-04-19T05:32:59.049Z,75.94
2023-04-19T05:33:58.992Z,75.15
2023-04-19T05:34:59.026Z,76.01
2023-04-19T05:35:58.965Z,75.15
2023-04-19T05:36:58.975Z,76.79
2023-04-19T05:37:58.997Z,76.39
2023-04-19T05:38:58.962Z,77.45
2023-04-19T05:39:58.951Z,75.59
2023-04-19T05:40:58.908Z,75.59
2023-04-19T05:41:58.947Z,76.69
2023-04-19T05:42:58.916Z,75.49
2023-04-19T05:43:58.904Z,73.54
2023-04-19T05:44:58.913Z,73.54
2023-04-19T05:45:58.917Z,72.65
2023-04-19T05:46:58.868Z,74.98
2023-04-19T05:47:58.850Z,75.04
2023-04-19T05:48:58.829Z,74.36
2023-04-19T05:49:58.878Z,75.87
2023-04-19T05:50:58.827Z,74.84
2023-04-19T05:51:58.783Z,74.67
2023-04-19T05:52:58.760Z,75.15
2023-04-19T05:53:58.782Z,75.70
2023-04-19T05:54:58.784Z,73.54
2023-04-19T05:55:58.726Z,72.96
2023-04-19T05:56:58.712Z,74.26
2023-04-19T05:57:58.738Z,72.82
2023-04-19T05:58:58.703Z,74.26
2023-04-19T06:00:59.737Z,76.59
2023-04-19T06:01:58.784Z,77.48
2023-04-19T06:02:58.782Z,76.93
2023-04-19T06:03:58.788Z,76.07
2023-04-19T06:05:02.474Z,75.35
2023-04-19T06:05:59.706Z,75.70
2023-04-19T06:06:58.716Z,74.46
2023-04-19T06:08:02.878Z,74.33
2023-04-19T06:08:58.615Z,75.97
2023-04-19T06:09:58.639Z,76.01
2023-04-19T06:11:02.592Z,76.04
2023-04-19T06:11:59.581Z,76.18
2023-04-19T06:12:58.551Z,76.04
2023-04-19T06:13:58.522Z,76.48
2023-04-19T06:14:58.546Z,75.29
2023-04-19T06:15:58.557Z,74.74
2023-04-19T06:16:58.495Z,76.76
2023-04-19T06:17:59.960Z,76.62
2023-04-19T06:18:58.481Z,76.83
2023-04-19T06:19:58.504Z,76.45
2023-04-19T06:20:58.448Z,75.80
2023-04-19T06:21:58.427Z,74.63
2023-04-19T06:22:58.416Z,74.26
2023-04-19T06:23:58.424Z,72.20
2023-04-19T06:24:58.440Z,73.36
2023-04-19T06:25:58.384Z,74.91
2023-04-19T06:26:58.392Z,74.19
2023-04-19T06:27:58.372Z,76.51
2023-04-19T06:28:58.373Z,74.49
2023-04-19T06:29:58.391Z,73.98
2023-04-19T06:30:58.352Z,71.72
2023-04-19T06:31:58.371Z,73.06
2023-04-19T06:32:58.390Z,74.53
2023-04-19T06:33:58.302Z,73.95
2023-04-19T06:34:58.326Z,72.85
2023-04-19T06:35:58.294Z,72.38
2023-04-19T06:36:58.309Z,74.63
2023-04-19T06:37:58.265Z,75.21
2023-04-19T06:38:58.255Z,73.44
2023-04-19T06:39:58.296Z,72.92
2023-04-19T06:40:58.218Z,73.36
2023-04-19T06:41:58.207Z,73.57
2023-04-19T06:42:58.218Z,72.51
2023-04-19T06:43:58.185Z,73.02
2023-04-19T06:44:58.220Z,73.64
2023-04-19T06:45:58.189Z,73.36
2023-04-19T06:46:58.159Z,73.98
2023-04-19T06:47:58.159Z,74.49
2023-04-19T06:48:58.166Z,74.36
2023-04-19T06:49:58.146Z,73.44
2023-04-19T06:50:58.122Z,74.46
2023-04-19T06:51:58.087Z,72.86
2023-04-19T06:52:58.066Z,71.83
2023-04-19T06:53:58.056Z,71.69
2023-04-19T06:54:58.315Z,69.75
2023-04-19T06:55:58.052Z,71.19
2023-04-19T06:56:58.053Z,70.78
2023-04-19T06:57:58.036Z,70.20
2023-04-19T06:58:58.035Z,70.57
2023-04-19T06:59:58.026Z,69.27
2023-04-19T07:00:58.052Z,71.08
2023-04-19T07:01:58.088Z,72.20
2023-04-19T07:02:58.089Z,71.97
2023-04-19T07:03:58.080Z,70.36
2023-04-19T07:04:57.995Z,71.42
2023-04-19T07:05:57.944Z,71.62
2023-04-19T07:06:57.929Z,74.02
2023-04-19T07:07:58.030Z,71.83
2023-04-19T07:08:57.933Z,70.98
2023-04-19T07:09:57.943Z,71.32
2023-04-19T07:10:57.897Z,71.15
2023-04-19T07:11:57.934Z,72.72
2023-04-19T07:12:57.880Z,71.45
2023-04-19T07:13:57.991Z,72.14
2023-04-19T07:14:57.891Z,70.23
2023-04-19T07:15:57.880Z,70.87
2023-04-19T07:16:57.802Z,72.58
2023-04-19T07:17:57.832Z,72.62
2023-04-19T07:18:57.812Z,75.41
2023-04-19T07:19:57.756Z,68.43
2023-04-19T07:20:57.809Z,71.39
2023-04-19T07:21:57.784Z,68.53
2023-04-19T07:22:57.755Z,68.42
2023-04-19T07:23:57.722Z,71.22
2023-04-19T07:24:57.729Z,73.98
2023-04-19T07:25:57.776Z,70.00
2023-04-19T07:26:57.679Z,67.76
2023-04-19T07:27:57.680Z,68.30
2023-04-19T07:28:57.670Z,68.10
2023-04-19T07:29:57.693Z,67.91
2023-04-19T07:30:57.789Z,65.36
2023-04-19T07:31:57.685Z,62.41
2023-04-19T07:32:57.674Z,63.20
2023-04-19T07:33:57.629Z,66.02
2023-04-19T07:34:57.639Z,69.46
2023-04-19T07:35:57.597Z,66.90
2023-04-19T07:36:57.585Z,69.75
2023-04-19T07:37:57.580Z,70.57
2023-04-19T07:38:57.558Z,71.39
2023-04-19T07:39:57.579Z,70.81
2023-04-19T07:40:57.519Z,70.71
2023-04-19T07:41:57.519Z,72.65
2023-04-19T07:42:57.511Z,69.59
2023-04-19T07:43:57.499Z,67.41
2023-04-19T07:44:57.490Z,65.99
2023-04-19T07:45:57.543Z,70.31
2023-04-19T07:46:57.600Z,65.53
2023-04-19T07:47:57.504Z,63.86
2023-04-19T07:48:57.431Z,69.42
2023-04-19T07:49:57.460Z,68.91
2023-04-19T07:50:58.266Z,69.26
2023-04-19T07:51:57.406Z,64.51
2023-04-19T07:52:57.395Z,65.16
2023-04-19T07:53:57.386Z,70.20
2023-04-19T07:54:57.424Z,69.11
2023-04-19T07:55:57.376Z,69.42
2023-04-19T07:56:57.338Z,69.00
2023-04-19T07:57:57.322Z,70.71
2023-04-19T07:59:07.740Z,71.36
2023-04-19T07:59:58.342Z,72.55
2023-04-19T08:00:57.316Z,73.68
2023-04-19T08:01:57.338Z,73.95
2023-04-19T08:02:57.531Z,74.46
2023-04-19T08:03:57.430Z,74.26
2023-04-19T08:04:57.366Z,75.01
2023-04-19T08:05:57.257Z,73.94
2023-04-19T08:06:57.242Z,73.94
2023-04-19T08:07:57.260Z,70.40
2023-04-19T08:08:57.204Z,71.05
2023-04-19T08:09:57.308Z,71.12
2023-04-19T08:10:57.178Z,70.09
2023-04-19T08:11:57.197Z,73.74
2023-04-19T08:13:04.525Z,72.41
2023-04-19T08:14:06.957Z,73.02
2023-04-19T08:15:06.722Z,75.62
2023-04-19T08:17:22.446Z,73.68
2023-04-19T08:17:58.208Z,72.89
2023-04-19T08:18:57.111Z,72.69
2023-04-19T08:19:57.081Z,72.86
2023-04-19T08:20:57.093Z,75.73
2023-04-19T08:21:57.078Z,74.49
2023-04-19T08:22:59.077Z,74.02
2023-04-19T08:23:57.033Z,74.77
2023-04-19T08:24:57.027Z,75.86
2023-04-19T08:25:57.052Z,76.54
2023-04-19T08:26:59.426Z,74.97
2023-04-19T08:27:56.992Z,73.81
2023-04-19T08:28:57.002Z,74.77
2023-04-19T08:29:56.967Z,74.43
2023-04-19T08:30:57.016Z,73.10
2023-04-19T08:31:56.989Z,72.14
2023-04-19T08:32:57.457Z,72.58
2023-04-19T08:33:56.943Z,72.62
2023-04-19T08:34:56.917Z,72.52
2023-04-19T08:35:56.927Z,73.23
2023-04-19T08:37:03.813Z,73.13
2023-04-19T08:37:57.882Z,74.39
2023-04-19T08:39:24.871Z,75.45
2023-04-19T08:39:57.852Z,74.63
2023-04-19T08:40:56.860Z,74.63
2023-04-19T08:42:06.997Z,73.50
2023-04-19T08:42:57.778Z,71.80
2023-04-19T08:43:56.808Z,71.42
2023-04-19T08:45:13.598Z,71.56
2023-04-19T08:45:57.812Z,72.24
2023-04-19T08:46:56.759Z,73.44
2023-04-19T08:48:00.780Z,73.95
2023-04-19T08:48:56.777Z,73.33
2023-04-19T08:50:07.081Z,73.27
2023-04-19T08:51:04.929Z,74.60
2023-04-19T08:51:57.727Z,75.56
2023-04-19T08:53:00.844Z,75.49
2023-04-19T08:53:57.695Z,76.31
2023-04-19T08:54:56.678Z,77.71
2023-04-19T08:56:10.596Z,75.15
2023-04-19T08:56:57.650Z,75.04
2023-04-19T08:57:56.673Z,74.43
2023-04-19T08:59:11.574Z,75.90
2023-04-19T08:59:57.605Z,75.38
2023-04-19T09:00:56.648Z,75.59
2023-04-19T09:01:56.723Z,76.10
2023-04-19T09:02:56.899Z,75.45
2023-04-19T09:04:07.138Z,75.79
2023-04-19T09:04:57.801Z,75.52
2023-04-19T09:05:56.737Z,76.55
2023-04-19T09:06:56.552Z,76.75
2023-04-19T09:07:56.560Z,75.73
2023-04-19T09:08:56.517Z,74.53
2023-04-19T09:10:02.871Z,75.31
2023-04-19T09:10:57.534Z,73.71
2023-04-19T09:11:56.504Z,70.68
2023-04-19T09:12:56.464Z,71.39
2023-04-19T09:13:56.454Z,69.52
2023-04-19T09:15:01.991Z,70.40
2023-04-19T09:15:57.512Z,68.84
2023-04-19T09:16:56.441Z,65.72
2023-04-19T09:17:56.460Z,65.08
2023-04-19T09:19:08.249Z,65.66
2023-04-19T09:19:57.393Z,62.78
2023-04-19T09:20:56.404Z,62.20
2023-04-19T09:21:56.559Z,65.06
2023-04-19T09:22:56.350Z,63.20
2023-04-19T09:23:56.356Z,63.94
2023-04-19T09:26:19.366Z,62.84
2023-04-19T09:26:57.299Z,66.80
2023-04-19T09:27:56.295Z,68.80
2023-04-19T09:28:56.298Z,69.79
2023-04-19T09:29:56.273Z,68.84
2023-04-19T09:31:06.764Z,68.12
2023-04-19T09:31:57.363Z,69.42
2023-04-19T09:32:56.307Z,70.26
2023-04-19T09:33:56.220Z,69.82
2023-04-19T09:34:56.232Z,70.47
2023-04-19T09:35:56.222Z,68.26
2023-04-19T09:37:04.713Z,65.91
2023-04-19T09:38:04.774Z,68.46
2023-04-19T09:38:57.158Z,66.62
2023-04-19T09:39:56.160Z,67.19
2023-04-19T09:40:56.184Z,68.01
2023-04-19T09:41:56.156Z,69.01
2023-04-19T09:44:08.943Z,68.19
2023-04-19T09:45:27.710Z,68.60
2023-04-19T09:45:57.103Z,67.85
2023-04-19T09:46:56.126Z,67.34
2023-04-19T09:47:56.112Z,67.44
2023-04-19T09:48:56.084Z,68.77
2023-04-19T09:49:56.047Z,67.79
2023-04-19T09:51:00.913Z,64.67
2023-04-19T09:51:57.038Z,64.75
2023-04-19T09:52:55.997Z,64.29
2023-04-19T09:53:56.015Z,65.89
2023-04-19T09:54:56.002Z,64.40
2023-04-19T09:56:01.546Z,63.92
2023-04-19T09:56:58.395Z,66.30
2023-04-19T09:57:55.948Z,66.80
2023-04-19T09:59:01.603Z,65.10
2023-04-19T09:59:56.918Z,64.96
2023-04-19T10:01:06.640Z,65.53
2023-04-19T10:01:56.973Z,68.55
2023-04-19T10:02:56.070Z,69.61
2023-04-19T10:03:56.221Z,70.53
2023-04-19T10:05:15.800Z,72.28
2023-04-19T10:05:57.349Z,72.17
2023-04-19T10:07:19.489Z,72.65
2023-04-19T10:07:59.876Z,70.61
2023-04-19T10:08:55.842Z,69.79
2023-04-19T10:09:59.894Z,69.71
2023-04-19T10:10:56.819Z,70.61
2023-04-19T10:12:03.148Z,69.34
2023-04-19T10:13:55.757Z,69.01
2023-04-19T10:14:55.745Z,69.59
2023-04-19T10:16:01.841Z,67.13
2023-04-19T10:16:56.783Z,66.14
2023-04-19T10:17:55.785Z,66.58
2023-04-19T10:18:55.717Z,67.78
2023-04-19T10:19:55.715Z,67.88
2023-04-19T10:20:55.700Z,69.07
2023-04-19T10:21:55.719Z,65.98
2023-04-19T10:22:55.695Z,66.39
2023-04-19T10:23:55.651Z,67.58
2023-04-19T10:24:55.652Z,66.15
2023-04-19T10:25:55.631Z,66.46
2023-04-19T10:26:55.675Z,68.77
2023-04-19T10:27:55.670Z,67.82
2023-04-19T10:28:55.594Z,65.75
2023-04-19T10:29:55.602Z,63.34
2023-04-19T10:30:55.594Z,63.70
2023-04-19T10:31:55.704Z,64.72
2023-04-19T10:32:55.587Z,65.68
2023-04-19T10:33:55.574Z,65.31
2023-04-19T10:34:55.538Z,65.92
2023-04-19T10:35:55.511Z,63.65
2023-04-19T10:36:55.537Z,63.22
2023-04-19T10:37:55.501Z,61.78
2023-04-19T10:38:55.543Z,64.69
2023-04-19T10:39:55.506Z,65.51
2023-04-19T10:40:55.452Z,64.49
2023-04-19T10:41:55.473Z,63.87
2023-04-19T10:42:55.391Z,66.47
2023-04-19T10:43:55.443Z,66.10
2023-04-19T10:44:55.400Z,63.45
2023-04-19T10:45:55.450Z,63.15
2023-04-19T10:46:55.415Z,62.74
2023-04-19T10:47:55.433Z,62.46
2023-04-19T10:48:55.390Z,62.46
2023-04-19T10:49:55.349Z,64.43
2023-04-19T10:50:55.328Z,63.79
2023-04-19T10:51:55.377Z,62.26
2023-04-19T10:52:55.307Z,63.92
2023-04-19T10:53:55.355Z,63.00
2023-04-19T10:54:55.275Z,64.94
2023-04-19T10:55:55.280Z,65.04
2023-04-19T10:56:55.327Z,63.34
2023-04-19T10:57:55.244Z,63.98
2023-04-19T10:58:55.233Z,63.83
2023-04-19T10:59:55.220Z,66.19
2023-04-19T11:00:55.224Z,63.24
2023-04-19T11:01:55.375Z,64.69
2023-04-19T11:02:55.315Z,62.05
2023-04-19T11:03:55.516Z,58.70
2023-04-19T11:04:55.164Z,64.27
2023-04-19T11:05:55.172Z,58.67
2023-04-19T11:06:55.190Z,57.84
2023-04-19T11:07:55.187Z,59.98
2023-04-19T11:08:55.129Z,63.07
2023-04-19T11:09:55.133Z,63.26
2023-04-19T11:10:55.100Z,67.82
2023-04-19T11:11:55.107Z,70.04
2023-04-19T11:12:55.057Z,67.08
2023-04-19T11:13:55.090Z,66.70
2023-04-19T11:14:55.067Z,65.23
2023-04-19T11:15:55.076Z,66.69
2023-04-19T11:16:55.107Z,65.53
2023-04-19T11:18:04.682Z,68.26
2023-04-19T11:18:56.010Z,66.39
2023-04-19T11:19:55.011Z,64.96
2023-04-19T11:20:54.981Z,67.38
2023-04-19T11:21:55.006Z,66.42
2023-04-19T11:22:55.000Z,63.85
2023-04-19T11:23:54.958Z,63.95
2023-04-19T11:24:54.963Z,64.90
2023-04-19T11:25:54.944Z,64.72
2023-04-19T11:26:55.677Z,64.22
2023-04-19T11:27:54.908Z,64.86
2023-04-19T11:28:54.914Z,64.75
2023-04-19T11:29:54.940Z,63.43
2023-04-19T11:30:54.898Z,65.09
2023-04-19T11:31:54.909Z,65.40
2023-04-19T11:32:54.887Z,65.50
2023-04-19T11:33:54.854Z,68.36
2023-04-19T11:34:54.842Z,67.71
2023-04-19T11:35:54.814Z,67.82
2023-04-19T11:36:54.821Z,66.69
2023-04-19T11:37:54.860Z,66.93
2023-04-19T11:38:54.774Z,67.13
2023-04-19T11:39:54.760Z,67.51
2023-04-19T11:40:54.724Z,65.98
2023-04-19T11:41:54.778Z,67.99
2023-04-19T11:42:54.777Z,65.84
2023-04-19T11:43:54.757Z,66.09
2023-04-19T11:44:54.700Z,64.90
2023-04-19T11:45:54.741Z,65.61
2023-04-19T11:46:54.756Z,66.83
2023-04-19T11:47:54.757Z,65.23
2023-04-19T11:48:54.753Z,67.41
2023-04-19T11:49:54.683Z,68.26
2023-04-19T11:50:54.667Z,68.70
2023-04-19T11:51:54.651Z,68.93
2023-04-19T11:52:54.683Z,72.52
2023-04-19T11:53:54.639Z,75.27
2023-04-19T11:54:54.577Z,75.99
2023-04-19T11:55:54.667Z,73.47
2023-04-19T11:56:54.576Z,75.52
2023-04-19T11:57:54.602Z,73.57
2023-04-19T11:58:54.567Z,71.83
2023-04-19T11:59:54.540Z,72.14
2023-04-19T12:00:54.561Z,70.94
2023-04-19T12:01:54.511Z,72.58
2023-04-19T12:02:54.690Z,74.15
2023-04-19T12:03:54.672Z,77.57
2023-04-19T12:04:54.712Z,76.68
2023-04-19T12:05:54.570Z,78.36
2023-04-19T12:06:54.476Z,78.91
2023-04-19T12:07:54.481Z,80.07
2023-04-19T12:08:54.420Z,83.15
2023-04-19T12:09:54.400Z,82.78
2023-04-19T12:10:54.414Z,82.47
2023-04-19T12:11:54.410Z,83.40
2023-04-19T12:12:54.452Z,86.38
2023-04-19T12:13:54.371Z,85.04
2023-04-19T12:14:54.367Z,84.01
2023-04-19T12:15:54.352Z,83.81
2023-04-19T12:16:54.427Z,85.97
2023-04-19T12:17:57.451Z,85.97
2023-04-19T12:18:54.329Z,86.42
2023-04-19T12:19:54.282Z,87.65
2023-04-19T12:20:55.250Z,88.72
2023-04-19T12:21:54.278Z,90.88
2023-04-19T12:22:54.274Z,91.02
2023-04-19T12:23:54.285Z,91.95
2023-04-19T12:24:54.266Z,92.25
2023-04-19T12:25:54.255Z,90.03
2023-04-19T12:26:55.992Z,91.99
2023-04-19T12:27:54.206Z,94.62
2023-04-19T12:28:54.246Z,95.24
2023-04-19T12:29:54.185Z,96.17
2023-04-19T12:30:54.198Z,94.93
2023-04-19T12:31:54.286Z,95.96
2023-04-19T12:32:54.213Z,93.49
2023-04-19T12:33:54.183Z,92.97
2023-04-19T12:34:54.116Z,93.90
2023-04-19T12:35:54.127Z,95.34
2023-04-19T12:36:54.111Z,92.77
2023-04-19T12:37:54.107Z,95.24
2023-04-19T12:38:54.122Z,95.40
2023-04-19T12:39:56.283Z,94.48
2023-04-19T12:40:54.073Z,96.64
2023-04-19T12:41:54.056Z,94.27
2023-04-19T12:42:54.046Z,95.50
2023-04-19T12:43:54.082Z,94.48
2023-04-19T12:44:54.052Z,94.78
2023-04-19T12:45:54.068Z,93.65
2023-04-19T12:46:53.988Z,94.37
2023-04-19T12:47:54.052Z,96.22
2023-04-19T12:48:54.011Z,94.37
2023-04-19T12:49:53.950Z,94.58
2023-04-19T12:50:53.971Z,94.58
2023-04-19T12:51:55.822Z,95.81
2023-04-19T12:52:53.936Z,96.84
2023-04-19T12:53:53.989Z,95.71
2023-04-19T12:54:53.906Z,97.25
2023-04-19T12:55:53.881Z,95.96
2023-04-19T12:56:53.889Z,97.24